MET'MAP v2.0
soon released !

Expected late october,
this new version will be
more efficient, smarter,
and hosted on a brand new
server x3 powerfull...
...and still free !


Not compatible ?
Try the mobile version !

LOG IN : | Subscribe | Disclaimer | Who is Orbifly ? |
ICAO code :

TAF - DAUH Oued Irara-Krim Belkacem - 02 Jun 2020 08:01 UTC - Data Source NOAA   


- Airport Elevation : 463 ft
- IATA code : HME
- No reported NOTAMs.


DAUH - Oued Irara-Krim Belkacem

Latest METAR recorded : 2015/08/11 08:00 DAUH 110800Z 34010KT 8000 FEW040 SCT100 32/18 Q1015
TAF TAF DAUH
Valid from the 02 at 06:00 until the 03 at 06:00 UTC


020500Z 0206/0306 04012KT 7000 NSC

Source NOAA


MET'MAP, your aeronautical weather chart ! - Copyright ORBIFLY December 2007

Programming & Development : Alexandra Zaïnal
Co-Developer : Marc-Olivier Méhu
Technical & hardware support : Manuel Goepfert
Concept & Financing : Baudouin d'Aumeries